createdAt,value
2023-04-19T00:02:06.846Z,98864.06
2023-04-19T00:04:34.105Z,98860.19
2023-04-19T00:07:00.937Z,98862.84
2023-04-19T00:09:27.607Z,98863.66
2023-04-19T00:11:54.346Z,98862.00
2023-04-19T00:14:21.130Z,98865.63
2023-04-19T00:16:47.969Z,98857.81
2023-04-19T00:19:14.742Z,98864.06
2023-04-19T00:21:41.475Z,98861.41
2023-04-19T00:24:08.692Z,98850.81
2023-04-19T00:26:35.418Z,98849.47
2023-04-19T00:29:02.323Z,98846.13
2023-04-19T00:31:29.121Z,98845.63
2023-04-19T00:33:57.322Z,98852.06
2023-04-19T00:36:27.415Z,98847.06
2023-04-19T00:38:54.133Z,98850.28
2023-04-19T00:41:21.559Z,98845.53
2023-04-19T00:43:48.248Z,98842.59
2023-04-19T00:46:16.135Z,98839.75
2023-04-19T00:48:43.137Z,98836.91
2023-04-19T00:51:12.089Z,98833.56
2023-04-19T00:53:39.060Z,98838.88
2023-04-19T00:56:06.075Z,98838.88
2023-04-19T00:58:33.010Z,98831.22
2023-04-19T01:01:00.562Z,98832.06
2023-04-19T01:03:29.768Z,98836.66
2023-04-19T01:05:57.327Z,98830.41
2023-04-19T01:08:24.386Z,98827.88
2023-04-19T01:10:53.965Z,98821.59
2023-04-19T01:13:20.674Z,98820.94
2023-04-19T01:15:48.487Z,98822.06
2023-04-19T01:18:15.260Z,98823.03
2023-04-19T01:20:42.860Z,98818.59
2023-04-19T01:23:11.780Z,98824.31
2023-04-19T01:25:39.245Z,98809.41
2023-04-19T01:28:06.391Z,98808.34
2023-04-19T01:30:33.130Z,98811.13
2023-04-19T01:32:59.950Z,98811.00
2023-04-19T01:35:26.746Z,98805.72
2023-04-19T01:37:55.708Z,98807.66
2023-04-19T01:40:26.283Z,98799.03
2023-04-19T01:42:53.489Z,98799.56
2023-04-19T01:45:20.339Z,98795.09
2023-04-19T01:47:50.586Z,98793.97
2023-04-19T01:50:17.387Z,98790.47
2023-04-19T01:52:44.132Z,98792.47
2023-04-19T01:55:10.872Z,98796.91
2023-04-19T01:57:37.549Z,98791.09
2023-04-19T02:00:04.711Z,98793.22
2023-04-19T02:02:41.419Z,98786.53
2023-04-19T02:05:08.891Z,98784.31
2023-04-19T02:07:35.765Z,98783.88
2023-04-19T02:10:02.472Z,98779.59
2023-04-19T02:12:31.086Z,98786.00
2023-04-19T02:14:58.308Z,98771.69
2023-04-19T02:17:30.611Z,98775.72
2023-04-19T02:19:59.499Z,98776.84
2023-04-19T02:22:27.108Z,98766.91
2023-04-19T02:24:54.322Z,98771.38
2023-04-19T02:27:27.318Z,98764.88
2023-04-19T02:29:54.682Z,98766.84
2023-04-19T02:32:21.462Z,98763.22
2023-04-19T02:34:48.185Z,98754.72
2023-04-19T02:37:14.910Z,98760.56
2023-04-19T02:39:42.875Z,98757.75
2023-04-19T02:42:09.619Z,98753.69
2023-04-19T02:44:36.353Z,98752.84
2023-04-19T02:47:03.080Z,98758.00
2023-04-19T02:49:33.311Z,98752.53
2023-04-19T02:52:01.002Z,98755.19
2023-04-19T02:54:27.755Z,98754.38
2023-04-19T02:56:54.520Z,98751.72
2023-04-19T02:59:21.864Z,98753.03
2023-04-19T03:01:48.826Z,98749.69
2023-04-19T03:04:17.318Z,98749.53
2023-04-19T03:06:44.612Z,98744.53
2023-04-19T03:09:12.188Z,98744.25
2023-04-19T03:11:39.162Z,98748.38
2023-04-19T03:14:06.144Z,98746.19
2023-04-19T03:16:33.853Z,98748.16
2023-04-19T03:19:01.007Z,98741.03
2023-04-19T03:21:32.640Z,98749.81
2023-04-19T03:24:00.056Z,98746.50
2023-04-19T03:26:27.183Z,98745.44
2023-04-19T03:28:56.378Z,98740.97
2023-04-19T03:31:23.163Z,98733.31
2023-04-19T03:33:51.455Z,98735.44
2023-04-19T03:36:20.121Z,98737.16
2023-04-19T03:38:47.402Z,98740.72
2023-04-19T03:41:23.560Z,98737.59
2023-04-19T03:44:13.308Z,98740.66
2023-04-19T03:46:43.436Z,98733.47
2023-04-19T03:49:10.422Z,98731.41
2023-04-19T03:51:37.882Z,98734.09
2023-04-19T03:54:04.676Z,98733.25
2023-04-19T03:56:32.684Z,98733.00
2023-04-19T03:58:59.602Z,98727.00
2023-04-19T04:01:27.994Z,98733.69
2023-04-19T04:03:55.990Z,98729.13
2023-04-19T04:06:23.095Z,98724.81
2023-04-19T04:08:50.177Z,98736.22
2023-04-19T04:11:17.064Z,98735.94
2023-04-19T04:13:46.855Z,98731.63
2023-04-19T04:16:18.573Z,98733.84
2023-04-19T04:18:45.576Z,98735.09
2023-04-19T04:21:14.674Z,98733.59
2023-04-19T04:23:43.799Z,98736.66
2023-04-19T04:26:16.823Z,98740.56
2023-04-19T04:29:10.037Z,98738.66
2023-04-19T04:31:39.637Z,98736.28
2023-04-19T04:34:06.780Z,98739.06
2023-04-19T04:36:37.811Z,98744.34
2023-04-19T04:39:06.652Z,98741.16
2023-04-19T04:41:33.642Z,98748.81
2023-04-19T04:46:31.572Z,98744.34
2023-04-19T04:48:58.431Z,98748.13
2023-04-19T04:51:25.316Z,98746.03
2023-04-19T04:53:53.387Z,98750.75
2023-04-19T04:56:20.593Z,98750.03
2023-04-19T04:58:47.434Z,98753.97
2023-04-19T05:01:22.980Z,98747.97
2023-04-19T05:03:50.755Z,98743.09
2023-04-19T05:06:19.313Z,98752.41
2023-04-19T05:08:46.153Z,98750.03
2023-04-19T05:11:21.719Z,98749.75
2023-04-19T05:13:48.558Z,98760.50
2023-04-19T05:16:15.412Z,98755.03
2023-04-19T05:18:44.952Z,98753.78
2023-04-19T05:21:11.761Z,98750.84
2023-04-19T05:23:39.689Z,98755.16
2023-04-19T05:26:06.635Z,98751.56
2023-04-19T05:28:33.359Z,98754.50
2023-04-19T05:31:09.414Z,98755.16
2023-04-19T05:33:44.598Z,98758.91
2023-04-19T05:36:11.608Z,98757.09
2023-04-19T05:38:38.382Z,98767.66
2023-04-19T05:41:06.550Z,98759.75
2023-04-19T05:43:33.257Z,98754.56
2023-04-19T05:46:00.435Z,98757.16
2023-04-19T05:48:27.317Z,98752.28
2023-04-19T05:50:55.276Z,98753.63
2023-04-19T05:53:57.179Z,98754.09
2023-04-19T05:56:25.072Z,98751.25
2023-04-19T05:58:51.830Z,98753.00
2023-04-19T06:01:18.691Z,98751.22
2023-04-19T06:03:45.752Z,98752.59
2023-04-19T06:06:12.641Z,98754.59
2023-04-19T06:08:39.391Z,98750.00
2023-04-19T06:11:15.715Z,98751.78
2023-04-19T06:13:51.321Z,98744.59
2023-04-19T06:16:18.868Z,98755.13
2023-04-19T06:18:45.659Z,98747.56
2023-04-19T06:21:12.367Z,98750.81
2023-04-19T06:23:39.116Z,98750.66
2023-04-19T06:26:05.998Z,98748.50
2023-04-19T06:28:32.720Z,98761.25
2023-04-19T06:30:59.566Z,98755.00
2023-04-19T06:33:26.395Z,98757.53
2023-04-19T06:35:53.224Z,98754.00
2023-04-19T06:38:19.930Z,98751.28
2023-04-19T06:40:46.649Z,98756.09
2023-04-19T06:43:13.513Z,98756.63
2023-04-19T06:45:40.270Z,98755.81
2023-04-19T06:48:07.036Z,98753.50
2023-04-19T06:50:33.813Z,98760.19
2023-04-19T06:53:01.184Z,98753.75
2023-04-19T06:55:29.107Z,98754.44
2023-04-19T06:57:55.816Z,98757.84
2023-04-19T07:00:23.149Z,98755.00
2023-04-19T07:02:51.127Z,98751.75
2023-04-19T07:05:18.408Z,98747.00
2023-04-19T07:07:45.111Z,98743.56
2023-04-19T07:10:13.040Z,98740.47
2023-04-19T07:12:39.839Z,98744.97
2023-04-19T07:15:07.010Z,98744.75
2023-04-19T07:17:36.140Z,98742.28
2023-04-19T07:20:04.497Z,98735.22
2023-04-19T07:22:31.373Z,98740.13
2023-04-19T07:24:58.718Z,98731.41
2023-04-19T07:27:25.878Z,98731.44
2023-04-19T07:29:53.401Z,98735.63
2023-04-19T07:32:21.119Z,98731.19
2023-04-19T07:34:47.926Z,98727.50
2023-04-19T07:37:14.932Z,98730.16
2023-04-19T07:39:41.824Z,98730.16
2023-04-19T07:42:08.546Z,98730.63
2023-04-19T07:44:35.421Z,98735.47
2023-04-19T07:47:02.165Z,98719.53
2023-04-19T07:49:33.996Z,98725.53
2023-04-19T07:52:04.243Z,98718.72
2023-04-19T07:54:31.546Z,98718.91
2023-04-19T07:56:59.216Z,98716.91
2023-04-19T07:59:26.037Z,98723.06
2023-04-19T08:01:52.831Z,98715.59
2023-04-19T08:04:21.081Z,98720.41
2023-04-19T08:06:48.213Z,98729.19
2023-04-19T08:09:15.068Z,98716.34
2023-04-19T08:11:43.270Z,98725.19
2023-04-19T08:14:18.580Z,98716.81
2023-04-19T08:17:21.936Z,98718.50
2023-04-19T08:19:43.531Z,98708.50
2023-04-19T08:22:10.788Z,98705.25
2023-04-19T08:24:37.546Z,98701.44
2023-04-19T08:27:04.288Z,98706.47
2023-04-19T08:29:31.321Z,98710.78
2023-04-19T08:31:58.172Z,98704.59
2023-04-19T08:34:25.040Z,98702.41
2023-04-19T08:37:03.262Z,98704.22
2023-04-19T08:39:33.889Z,98705.06
2023-04-19T08:42:12.647Z,98701.09
2023-04-19T08:45:09.479Z,98694.97
2023-04-19T08:47:51.973Z,98689.66
2023-04-19T08:50:33.321Z,98696.13
2023-04-19T08:53:16.544Z,98689.63
2023-04-19T08:56:08.597Z,98692.19
2023-04-19T08:58:57.106Z,98690.31
2023-04-19T09:01:34.669Z,98687.91
2023-04-19T09:04:26.188Z,98686.81
2023-04-19T09:06:52.882Z,98691.31
2023-04-19T09:11:51.820Z,98690.53
2023-04-19T09:14:20.918Z,98690.03
2023-04-19T09:16:48.122Z,98685.66
2023-04-19T09:19:24.285Z,98687.47
2023-04-19T09:21:54.770Z,98674.97
2023-04-19T09:25:04.448Z,98673.22
2023-04-19T09:27:37.357Z,98666.28
2023-04-19T09:30:05.115Z,98668.69
2023-04-19T09:32:47.119Z,98657.31
2023-04-19T09:35:14.424Z,98659.41
2023-04-19T09:40:24.909Z,98655.06
2023-04-19T09:48:10.558Z,98642.13
2023-04-19T09:50:58.611Z,98639.97
2023-04-19T09:53:28.960Z,98634.44
2023-04-19T09:56:01.671Z,98632.03
2023-04-19T09:58:41.566Z,98622.81
2023-04-19T10:01:16.173Z,98627.91
2023-04-19T10:03:49.446Z,98625.38
2023-04-19T10:08:51.189Z,98637.09
2023-04-19T10:11:19.348Z,98635.13
2023-04-19T10:13:47.412Z,98632.47
2023-04-19T10:16:19.472Z,98626.81
2023-04-19T10:18:50.469Z,98626.94
2023-04-19T10:21:18.308Z,98625.41
2023-04-19T10:23:45.091Z,98624.25
2023-04-19T10:26:11.785Z,98620.69
2023-04-19T10:28:38.536Z,98620.22
2023-04-19T10:31:05.557Z,98615.25
2023-04-19T10:33:36.288Z,98621.03
2023-04-19T10:36:04.065Z,98611.91
2023-04-19T10:38:45.946Z,98609.25
2023-04-19T10:41:17.015Z,98611.88
2023-04-19T10:44:08.744Z,98603.75
2023-04-19T10:46:36.379Z,98606.41
2023-04-19T10:49:04.836Z,98605.25
2023-04-19T10:51:36.696Z,98603.50
2023-04-19T10:54:09.822Z,98599.44
2023-04-19T10:56:36.545Z,98594.66
2023-04-19T10:59:05.454Z,98598.03
2023-04-19T11:01:43.497Z,98592.22
2023-04-19T11:04:18.629Z,98588.38
2023-04-19T11:06:51.733Z,98589.88
2023-04-19T11:09:39.112Z,98580.50
2023-04-19T11:12:10.927Z,98580.53
2023-04-19T11:14:40.698Z,98579.66
2023-04-19T11:17:25.792Z,98585.69
2023-04-19T11:20:08.701Z,98578.78
2023-04-19T11:22:46.167Z,98571.22
2023-04-19T11:25:19.245Z,98573.91
2023-04-19T11:27:48.070Z,98576.56
2023-04-19T11:30:17.362Z,98560.94
2023-04-19T11:32:48.729Z,98582.06
2023-04-19T11:35:17.456Z,98578.41
2023-04-19T11:37:44.129Z,98574.06
2023-04-19T11:40:15.364Z,98571.41
2023-04-19T11:42:42.107Z,98574.22
2023-04-19T11:45:18.622Z,98567.94
2023-04-19T11:47:53.238Z,98567.28
2023-04-19T11:50:39.199Z,98563.94
2023-04-19T11:53:15.173Z,98555.97
2023-04-19T11:55:51.536Z,98566.09
2023-04-19T11:58:51.580Z,98560.78
2023-04-19T12:01:19.949Z,98554.78
2023-04-19T12:03:53.571Z,98563.38
2023-04-19T12:06:23.415Z,98552.91
2023-04-19T12:08:52.303Z,98555.38
2023-04-19T12:11:23.104Z,98552.34
2023-04-19T12:14:19.416Z,98547.38
2023-04-19T12:16:46.634Z,98551.66
2023-04-19T12:19:20.762Z,98553.69
2023-04-19T12:21:47.882Z,98553.53
2023-04-19T12:24:17.780Z,98557.88
2023-04-19T12:26:57.948Z,98544.56
2023-04-19T12:29:26.745Z,98543.56
2023-04-19T12:31:53.542Z,98545.41
2023-04-19T12:34:20.418Z,98548.91
2023-04-19T12:36:47.480Z,98549.09
2023-04-19T12:39:14.410Z,98548.13
2023-04-19T12:41:43.948Z,98547.06
2023-04-19T12:44:10.740Z,98544.09
2023-04-19T12:46:37.571Z,98540.78
2023-04-19T12:49:04.371Z,98538.50
2023-04-19T12:51:31.947Z,98543.81
2023-04-19T12:53:58.758Z,98539.47
2023-04-19T12:56:25.587Z,98539.81
2023-04-19T12:58:53.145Z,98531.72
2023-04-19T13:01:19.885Z,98534.56
2023-04-19T13:03:46.793Z,98535.56
2023-04-19T13:06:15.604Z,98532.09
2023-04-19T13:08:46.496Z,98530.59
2023-04-19T13:11:14.539Z,98533.56
2023-04-19T13:13:41.592Z,98528.94
2023-04-19T13:16:08.424Z,98520.50
2023-04-19T13:18:35.499Z,98515.00
2023-04-19T13:21:02.206Z,98506.22
2023-04-19T13:23:30.157Z,98505.22
2023-04-19T13:25:56.887Z,98505.72
2023-04-19T13:28:23.574Z,98503.06
2023-04-19T13:30:50.327Z,98504.38
2023-04-19T13:33:17.132Z,98497.75
2023-04-19T13:35:45.200Z,98500.75
2023-04-19T13:38:12.260Z,98494.09
2023-04-19T13:40:39.025Z,98497.06
2023-04-19T13:43:05.706Z,98484.66
2023-04-19T13:45:32.447Z,98488.44
2023-04-19T13:47:59.261Z,98480.25
2023-04-19T13:50:26.092Z,98474.13
2023-04-19T13:52:52.820Z,98464.41
2023-04-19T13:55:19.571Z,98469.69
2023-04-19T13:57:46.437Z,98468.44
2023-04-19T14:00:13.685Z,98469.22
2023-04-19T14:02:40.568Z,98459.19
2023-04-19T14:05:07.786Z,98458.06
2023-04-19T14:07:34.519Z,98446.28
2023-04-19T14:10:01.213Z,98448.50
2023-04-19T14:12:27.934Z,98448.53
2023-04-19T14:14:54.643Z,98446.59
2023-04-19T14:17:21.713Z,98439.09
2023-04-19T14:19:48.435Z,98442.97
2023-04-19T14:22:16.482Z,98432.50
2023-04-19T14:24:43.238Z,98444.56
2023-04-19T14:27:11.511Z,98435.38
2023-04-19T14:29:38.896Z,98438.56
2023-04-19T14:32:21.463Z,98425.31
2023-04-19T14:34:51.631Z,98422.00
2023-04-19T14:37:19.223Z,98422.63
2023-04-19T14:39:46.680Z,98423.38
2023-04-19T14:42:13.792Z,98420.97
2023-04-19T14:44:40.953Z,98425.16
2023-04-19T14:47:07.814Z,98429.38
2023-04-19T14:49:34.526Z,98424.41
2023-04-19T14:52:01.203Z,98427.50
2023-04-19T14:54:28.110Z,98420.41
2023-04-19T14:56:54.804Z,98421.44
2023-04-19T14:59:21.764Z,98411.66
2023-04-19T15:01:48.880Z,98409.34
2023-04-19T15:04:16.768Z,98409.97
2023-04-19T15:06:43.656Z,98398.09
2023-04-19T15:09:10.599Z,98403.38
2023-04-19T15:11:37.369Z,98396.63
2023-04-19T15:14:04.184Z,98400.06
2023-04-19T15:16:31.478Z,98398.28
2023-04-19T15:18:58.296Z,98402.41
2023-04-19T15:21:25.098Z,98400.16
2023-04-19T15:23:51.819Z,98402.28
2023-04-19T15:26:18.532Z,98402.00
2023-04-19T15:28:45.899Z,98396.50
2023-04-19T15:31:12.852Z,98394.84
2023-04-19T15:33:39.635Z,98382.31
2023-04-19T15:36:06.544Z,98388.91
2023-04-19T15:38:33.627Z,98390.09
2023-04-19T15:41:03.606Z,98373.78
2023-04-19T15:43:30.383Z,98379.81
2023-04-19T15:45:57.119Z,98372.94
2023-04-19T15:48:23.895Z,98379.16
2023-04-19T15:50:50.915Z,98377.16
2023-04-19T15:53:17.681Z,98384.69
2023-04-19T15:55:46.740Z,98375.63
2023-04-19T15:58:13.621Z,98374.19
2023-04-19T16:00:40.424Z,98379.72
2023-04-19T16:03:09.043Z,98378.59
2023-04-19T16:05:35.903Z,98374.50
2023-04-19T16:08:04.656Z,98373.34
2023-04-19T16:10:31.648Z,98369.53
2023-04-19T16:12:58.476Z,98376.72
2023-04-19T16:15:25.239Z,98373.06
2023-04-19T16:17:52.709Z,98376.03
2023-04-19T16:20:20.696Z,98369.03
2023-04-19T16:22:47.995Z,98367.00
2023-04-19T16:25:15.798Z,98369.69
2023-04-19T16:27:44.088Z,98374.06
2023-04-19T16:30:14.417Z,98367.66
2023-04-19T16:32:41.699Z,98369.69
2023-04-19T16:35:08.841Z,98372.22
2023-04-19T16:37:36.058Z,98373.00
2023-04-19T16:40:08.356Z,98365.19
2023-04-19T16:42:36.874Z,98361.16
2023-04-19T16:45:06.509Z,98362.34
2023-04-19T16:47:33.641Z,98361.72
2023-04-19T16:50:01.120Z,98366.84
2023-04-19T16:52:29.244Z,98359.53
2023-04-19T16:54:56.115Z,98354.47
2023-04-19T16:57:23.630Z,98357.94
2023-04-19T16:59:50.698Z,98358.28
2023-04-19T17:02:17.833Z,98356.88
2023-04-19T17:04:44.848Z,98353.91
2023-04-19T17:07:12.344Z,98358.09
2023-04-19T17:09:39.195Z,98354.72
2023-04-19T17:12:06.460Z,98361.06
2023-04-19T17:14:35.116Z,98356.13
2023-04-19T17:17:01.918Z,98363.75
2023-04-19T17:19:28.716Z,98359.78
2023-04-19T17:21:55.740Z,98359.78
2023-04-19T17:24:22.627Z,98359.78
2023-04-19T17:26:50.192Z,98358.47
2023-04-19T17:29:17.228Z,98374.41
2023-04-19T17:31:44.261Z,98372.38
2023-04-19T17:34:11.573Z,98381.00
2023-04-19T17:36:38.310Z,98380.84
2023-04-19T17:39:06.814Z,98378.34
2023-04-19T17:41:34.068Z,98378.03
2023-04-19T17:44:00.929Z,98378.69
2023-04-19T17:46:27.707Z,98377.53
2023-04-19T17:48:55.697Z,98383.97
2023-04-19T17:51:22.637Z,98387.28
2023-04-19T17:53:49.332Z,98389.28
2023-04-19T17:56:16.116Z,98381.66
2023-04-19T17:58:42.818Z,98377.47
2023-04-19T18:01:10.578Z,98378.69
2023-04-19T18:03:37.513Z,98384.00
2023-04-19T18:06:04.355Z,98381.66
2023-04-19T18:08:31.206Z,98389.28
2023-04-19T18:10:57.864Z,98390.72
2023-04-19T18:13:24.581Z,98389.88
2023-04-19T18:15:51.383Z,98400.00
2023-04-19T18:18:18.169Z,98393.19
2023-04-19T18:20:44.910Z,98393.81
2023-04-19T18:23:11.669Z,98395.47
2023-04-19T18:25:38.533Z,98400.22
2023-04-19T18:28:05.433Z,98406.50
2023-04-19T18:30:32.183Z,98408.03
2023-04-19T18:32:59.463Z,98405.72
2023-04-19T18:35:26.294Z,98408.31
2023-04-19T18:37:53.081Z,98405.56
2023-04-19T18:40:19.915Z,98419.38
2023-04-19T18:42:46.707Z,98412.56
2023-04-19T18:45:13.642Z,98415.19
2023-04-19T18:47:40.472Z,98412.72
2023-04-19T18:50:08.858Z,98416.63
2023-04-19T18:52:38.498Z,98412.50
2023-04-19T18:55:06.621Z,98424.03
2023-04-19T18:57:34.847Z,98420.84
2023-04-19T19:00:02.627Z,98424.06
2023-04-19T19:02:29.507Z,98429.53
2023-04-19T19:05:01.071Z,98439.06
2023-04-19T19:10:09.664Z,98429.34
2023-04-19T19:12:43.488Z,98441.16
2023-04-19T19:15:10.975Z,98437.31
2023-04-19T19:17:38.067Z,98435.13
2023-04-19T19:20:06.937Z,98435.56
2023-04-19T19:22:34.229Z,98434.53
2023-04-19T19:25:01.422Z,98428.19
2023-04-19T19:27:28.308Z,98438.97
2023-04-19T19:29:55.293Z,98440.50
2023-04-19T19:32:22.265Z,98444.25
2023-04-19T19:37:19.744Z,98439.16
2023-04-19T19:39:46.767Z,98443.41
2023-04-19T19:42:16.647Z,98447.00
2023-04-19T19:44:43.733Z,98442.56
2023-04-19T19:47:11.404Z,98448.44
2023-04-19T19:52:07.898Z,98451.22
2023-04-19T19:54:34.633Z,98444.59
2023-04-19T19:59:34.998Z,98447.22
2023-04-19T20:02:02.611Z,98445.19
2023-04-19T20:04:29.747Z,98448.78
2023-04-19T20:07:28.506Z,98451.59
2023-04-19T20:09:43.676Z,98447.69
2023-04-19T20:12:12.811Z,98442.72
2023-04-19T20:14:39.564Z,98444.69
2023-04-19T20:17:06.636Z,98447.47
2023-04-19T20:19:33.438Z,98447.75
2023-04-19T20:22:00.764Z,98447.50
2023-04-19T20:24:27.734Z,98443.03
2023-04-19T20:26:54.478Z,98435.28
2023-04-19T20:29:21.811Z,98440.56
2023-04-19T20:31:48.533Z,98434.88
2023-04-19T20:34:15.324Z,98436.13
2023-04-19T20:36:42.847Z,98440.75
2023-04-19T20:39:13.159Z,98443.13
2023-04-19T20:41:39.949Z,98444.41
2023-04-19T20:44:06.838Z,98445.53
2023-04-19T20:46:34.990Z,98448.72
2023-04-19T20:49:01.747Z,98445.53
2023-04-19T20:51:28.449Z,98446.13
2023-04-19T20:53:55.237Z,98447.66
2023-04-19T20:56:21.965Z,98446.72
2023-04-19T20:58:48.994Z,98442.56
2023-04-19T21:01:17.657Z,98443.66
2023-04-19T21:03:45.184Z,98444.91
2023-04-19T21:06:12.302Z,98444.38
2023-04-19T21:08:38.991Z,98454.34
2023-04-19T21:11:05.738Z,98447.56
2023-04-19T21:13:33.138Z,98446.31
2023-04-19T21:16:00.272Z,98433.97
2023-04-19T21:18:30.058Z,98442.28
2023-04-19T21:20:57.647Z,98442.44
2023-04-19T21:23:24.693Z,98438.41
2023-04-19T21:25:51.470Z,98433.13
2023-04-19T21:28:18.208Z,98425.22
2023-04-19T21:30:45.571Z,98433.13
2023-04-19T21:33:12.974Z,98416.88
2023-04-19T21:35:39.661Z,98413.69
2023-04-19T21:38:06.908Z,98428.53
2023-04-19T21:40:33.609Z,98416.88
2023-04-19T21:43:00.880Z,98424.94
2023-04-19T21:45:27.663Z,98418.97
2023-04-19T21:47:54.363Z,98410.53
2023-04-19T21:50:21.112Z,98426.47
2023-04-19T21:52:47.811Z,98425.91
2023-04-19T21:55:14.510Z,98424.81
2023-04-19T21:57:41.223Z,98423.69
2023-04-19T22:00:09.863Z,98420.34
2023-04-19T22:02:36.755Z,98428.53
2023-04-19T22:05:03.606Z,98420.91
2023-04-19T22:07:33.451Z,98419.94
2023-04-19T22:10:03.066Z,98413.56
2023-04-19T22:12:29.777Z,98409.16
2023-04-19T22:14:56.845Z,98410.38
2023-04-19T22:17:23.608Z,98407.88
2023-04-19T22:19:51.683Z,98410.66
2023-04-19T22:22:18.349Z,98403.72
2023-04-19T22:24:56.925Z,98398.19
2023-04-19T22:27:24.978Z,98396.09
2023-04-19T22:29:51.970Z,98390.28
2023-04-19T22:32:18.797Z,98385.13
2023-04-19T22:34:45.779Z,98388.72
2023-04-19T22:37:12.478Z,98381.94
2023-04-19T22:39:39.237Z,98380.00
2023-04-19T22:42:06.306Z,98374.63
2023-04-19T22:44:33.117Z,98368.38
2023-04-19T22:47:00.135Z,98374.75
2023-04-19T22:49:26.904Z,98366.28
2023-04-19T22:51:55.048Z,98373.38
2023-04-19T22:54:21.889Z,98363.94
2023-04-19T22:56:48.559Z,98367.53
2023-04-19T22:59:15.404Z,98366.41
2023-04-19T23:01:42.445Z,98353.53
2023-04-19T23:04:13.461Z,98351.03
2023-04-19T23:06:41.495Z,98351.56
2023-04-19T23:09:11.113Z,98351.97
2023-04-19T23:11:37.867Z,98352.25
2023-04-19T23:14:04.900Z,98352.25
2023-04-19T23:16:33.508Z,98349.75
2023-04-19T23:19:01.289Z,98341.81
2023-04-19T23:21:30.132Z,98352.09
2023-04-19T23:23:56.857Z,98341.44
2023-04-19T23:26:23.579Z,98345.66
2023-04-19T23:28:50.274Z,98337.66
2023-04-19T23:31:16.959Z,98334.88
2023-04-19T23:33:43.703Z,98325.44
2023-04-19T23:36:10.431Z,98329.59
2023-04-19T23:38:37.137Z,98320.31
2023-04-19T23:41:03.852Z,98316.03
2023-04-19T23:43:30.796Z,98318.25
2023-04-19T23:45:57.515Z,98315.09
2023-04-19T23:48:24.258Z,98311.63
2023-04-19T23:50:51.095Z,98306.59
2023-04-19T23:53:17.807Z,98302.06
2023-04-19T23:55:44.508Z,98303.97
2023-04-19T23:58:11.225Z,98304.84
